sensor_id;sensor_type;location;lat;lon;timestamp;pressure;altitude;pressure_sealevel;temperature;humidity
73171;BME280;61381;50.118;19.962;2023-11-19T00:04:17;98992.00;;;3.31;100.00
73171;BME280;61381;50.118;19.962;2023-11-19T00:09:19;98982.25;;;3.44;100.00
73171;BME280;61381;50.118;19.962;2023-11-19T00:14:20;98987.31;;;3.15;100.00
73171;BME280;61381;50.118;19.962;2023-11-19T00:19:21;98980.28;;;3.09;100.00
73171;BME280;61381;50.118;19.962;2023-11-19T00:24:23;98983.84;;;3.33;100.00
73171;BME280;61381;50.118;19.962;2023-11-19T00:29:24;98978.19;;;3.11;100.00
73171;BME280;61381;50.118;19.962;2023-11-19T00:34:25;98968.84;;;3.27;100.00
73171;BME280;61381;50.118;19.962;2023-11-19T00:39:28;98957.53;;;3.50;100.00
73171;BME280;61381;50.118;19.962;2023-11-19T00:44:29;98935.63;;;3.43;100.00
73171;BME280;61381;50.118;19.962;2023-11-19T00:49:30;98937.19;;;3.32;100.00
73171;BME280;61381;50.118;19.962;2023-11-19T00:54:32;98927.72;;;3.24;100.00
73171;BME280;61381;50.118;19.962;2023-11-19T00:59:33;98925.06;;;3.54;100.00
73171;BME280;61381;50.118;19.962;2023-11-19T01:04:34;98917.91;;;3.43;100.00
73171;BME280;61381;50.118;19.962;2023-11-19T01:09:36;98911.53;;;3.32;100.00
73171;BME280;61381;50.118;19.962;2023-11-19T01:14:38;98906.84;;;3.46;100.00
73171;BME280;61381;50.118;19.962;2023-11-19T01:19:39;98916.50;;;3.41;100.00
73171;BME280;61381;50.118;19.962;2023-11-19T01:24:41;98911.25;;;3.52;99.69
73171;BME280;61381;50.118;19.962;2023-11-19T01:29:42;98911.59;;;3.56;100.00
73171;BME280;61381;50.118;19.962;2023-11-19T01:34:43;98912.03;;;3.53;100.00
73171;BME280;61381;50.118;19.962;2023-11-19T01:39:45;98908.25;;;3.61;100.00
73171;BME280;61381;50.118;19.962;2023-11-19T01:44:56;98895.56;;;3.63;100.00
73171;BME280;61381;50.118;19.962;2023-11-19T01:49:59;98887.41;;;3.52;100.00
73171;BME280;61381;50.118;19.962;2023-11-19T01:55:02;98892.09;;;3.38;100.00
73171;BME280;61381;50.118;19.962;2023-11-19T02:00:04;98883.78;;;3.35;100.00
73171;BME280;61381;50.118;19.962;2023-11-19T02:05:06;98869.19;;;3.32;100.00
73171;BME280;61381;50.118;19.962;2023-11-19T02:10:09;98863.34;;;3.54;100.00
73171;BME280;61381;50.118;19.962;2023-11-19T02:15:10;98854.47;;;3.48;100.00
73171;BME280;61381;50.118;19.962;2023-11-19T02:20:11;98854.13;;;3.45;100.00
73171;BME280;61381;50.118;19.962;2023-11-19T02:25:19;98828.66;;;3.44;100.00
73171;BME280;61381;50.118;19.962;2023-11-19T02:30:22;98820.13;;;3.53;100.00
73171;BME280;61381;50.118;19.962;2023-11-19T02:35:23;98798.47;;;3.21;100.00
73171;BME280;61381;50.118;19.962;2023-11-19T02:40:24;98787.09;;;3.44;100.00
73171;BME280;61381;50.118;19.962;2023-11-19T02:45:26;98768.31;;;3.46;100.00
73171;BME280;61381;50.118;19.962;2023-11-19T02:50:28;98773.28;;;3.42;100.00
73171;BME280;61381;50.118;19.962;2023-11-19T02:55:28;98775.00;;;3.36;100.00
73171;BME280;61381;50.118;19.962;2023-11-19T03:00:31;98751.75;;;3.38;100.00
73171;BME280;61381;50.118;19.962;2023-11-19T03:05:32;98742.53;;;3.41;100.00
73171;BME280;61381;50.118;19.962;2023-11-19T03:10:33;98719.06;;;3.21;100.00
73171;BME280;61381;50.118;19.962;2023-11-19T03:15:35;98719.84;;;3.45;100.00
73171;BME280;61381;50.118;19.962;2023-11-19T03:20:36;98702.47;;;3.37;100.00
73171;BME280;61381;50.118;19.962;2023-11-19T03:25:37;98700.84;;;3.36;100.00
73171;BME280;61381;50.118;19.962;2023-11-19T03:30:39;98688.22;;;2.91;100.00
73171;BME280;61381;50.118;19.962;2023-11-19T03:35:40;98669.56;;;2.62;100.00
73171;BME280;61381;50.118;19.962;2023-11-19T03:40:41;98681.31;;;2.90;100.00
73171;BME280;61381;50.118;19.962;2023-11-19T03:45:44;98677.28;;;2.99;100.00
73171;BME280;61381;50.118;19.962;2023-11-19T03:50:45;98666.91;;;2.86;100.00
73171;BME280;61381;50.118;19.962;2023-11-19T03:55:45;98663.94;;;3.06;100.00
73171;BME280;61381;50.118;19.962;2023-11-19T04:00:48;98645.19;;;2.84;100.00
73171;BME280;61381;50.118;19.962;2023-11-19T04:05:49;98622.44;;;2.71;100.00
73171;BME280;61381;50.118;19.962;2023-11-19T04:10:50;98621.63;;;2.82;100.00
73171;BME280;61381;50.118;19.962;2023-11-19T04:15:52;98632.75;;;2.96;100.00
73171;BME280;61381;50.118;19.962;2023-11-19T04:20:53;98614.34;;;3.01;100.00
73171;BME280;61381;50.118;19.962;2023-11-19T04:25:54;98611.69;;;3.13;100.00
73171;BME280;61381;50.118;19.962;2023-11-19T04:30:56;98607.09;;;2.97;100.00
73171;BME280;61381;50.118;19.962;2023-11-19T04:35:57;98604.81;;;3.00;100.00
73171;BME280;61381;50.118;19.962;2023-11-19T04:40:58;98600.41;;;3.18;100.00
73171;BME280;61381;50.118;19.962;2023-11-19T04:46:03;98571.03;;;3.31;100.00
73171;BME280;61381;50.118;19.962;2023-11-19T04:51:04;98564.19;;;3.07;100.00
73171;BME280;61381;50.118;19.962;2023-11-19T04:56:09;98560.84;;;3.11;100.00
73171;BME280;61381;50.118;19.962;2023-11-19T05:01:14;98547.06;;;2.97;100.00
73171;BME280;61381;50.118;19.962;2023-11-19T05:06:15;98564.28;;;3.12;100.00
73171;BME280;61381;50.118;19.962;2023-11-19T05:11:16;98549.66;;;3.21;100.00
73171;BME280;61381;50.118;19.962;2023-11-19T05:16:18;98552.59;;;3.36;100.00
73171;BME280;61381;50.118;19.962;2023-11-19T05:21:19;98554.75;;;3.39;100.00
73171;BME280;61381;50.118;19.962;2023-11-19T05:26:21;98549.38;;;3.34;100.00
73171;BME280;61381;50.118;19.962;2023-11-19T05:31:24;98561.00;;;3.33;100.00
73171;BME280;61381;50.118;19.962;2023-11-19T05:36:25;98551.00;;;3.35;100.00
73171;BME280;61381;50.118;19.962;2023-11-19T05:41:26;98540.88;;;3.32;100.00
73171;BME280;61381;50.118;19.962;2023-11-19T05:46:28;98542.56;;;2.98;100.00
73171;BME280;61381;50.118;19.962;2023-11-19T05:51:29;98540.44;;;3.24;100.00
73171;BME280;61381;50.118;19.962;2023-11-19T05:56:30;98518.44;;;3.23;100.00
73171;BME280;61381;50.118;19.962;2023-11-19T06:01:33;98511.13;;;3.13;100.00
73171;BME280;61381;50.118;19.962;2023-11-19T06:06:34;98506.19;;;3.05;100.00
73171;BME280;61381;50.118;19.962;2023-11-19T06:11:35;98489.34;;;2.71;100.00
73171;BME280;61381;50.118;19.962;2023-11-19T06:16:37;98501.88;;;2.75;100.00
73171;BME280;61381;50.118;19.962;2023-11-19T06:21:38;98495.31;;;2.90;100.00
73171;BME280;61381;50.118;19.962;2023-11-19T06:26:39;98489.81;;;2.79;100.00
73171;BME280;61381;50.118;19.962;2023-11-19T06:31:41;98481.53;;;2.76;100.00
73171;BME280;61381;50.118;19.962;2023-11-19T06:36:42;98494.63;;;2.82;100.00
73171;BME280;61381;50.118;19.962;2023-11-19T06:41:46;98500.31;;;3.03;100.00
73171;BME280;61381;50.118;19.962;2023-11-19T06:46:49;98495.69;;;3.22;100.00
73171;BME280;61381;50.118;19.962;2023-11-19T06:51:50;98493.78;;;3.34;100.00
73171;BME280;61381;50.118;19.962;2023-11-19T06:56:51;98489.28;;;3.35;100.00
73171;BME280;61381;50.118;19.962;2023-11-19T07:01:53;98468.72;;;3.71;100.00
73171;BME280;61381;50.118;19.962;2023-11-19T07:06:54;98471.22;;;3.32;100.00
73171;BME280;61381;50.118;19.962;2023-11-19T07:11:55;98470.09;;;3.28;100.00
73171;BME280;61381;50.118;19.962;2023-11-19T07:16:58;98446.03;;;3.29;100.00
73171;BME280;61381;50.118;19.962;2023-11-19T07:21:58;98421.75;;;3.32;100.00
73171;BME280;61381;50.118;19.962;2023-11-19T07:26:59;98414.69;;;3.38;100.00
73171;BME280;61381;50.118;19.962;2023-11-19T07:32:02;98427.63;;;3.68;100.00
73171;BME280;61381;50.118;19.962;2023-11-19T07:37:03;98439.25;;;3.67;100.00
73171;BME280;61381;50.118;19.962;2023-11-19T07:42:04;98444.81;;;4.00;100.00
73171;BME280;61381;50.118;19.962;2023-11-19T07:47:06;98436.69;;;4.45;100.00
73171;BME280;61381;50.118;19.962;2023-11-19T07:52:07;98443.28;;;4.65;100.00
73171;BME280;61381;50.118;19.962;2023-11-19T07:57:08;98420.59;;;4.96;100.00
73171;BME280;61381;50.118;19.962;2023-11-19T08:02:11;98418.59;;;5.36;100.00
73171;BME280;61381;50.118;19.962;2023-11-19T08:07:11;98403.19;;;5.38;98.46
73171;BME280;61381;50.118;19.962;2023-11-19T08:12:12;98398.00;;;4.94;99.79
73171;BME280;61381;50.118;19.962;2023-11-19T08:17:15;98382.75;;;4.84;96.54
73171;BME280;61381;50.118;19.962;2023-11-19T08:22:16;98385.47;;;5.16;92.17
73171;BME280;61381;50.118;19.962;2023-11-19T08:27:17;98372.81;;;5.56;92.57
73171;BME280;61381;50.118;19.962;2023-11-19T08:32:19;98357.25;;;5.38;92.49
73171;BME280;61381;50.118;19.962;2023-11-19T08:37:20;98367.03;;;5.69;90.76
73171;BME280;61381;50.118;19.962;2023-11-19T08:42:21;98369.13;;;5.62;90.26
73171;BME280;61381;50.118;19.962;2023-11-19T08:47:23;98361.31;;;5.88;89.30
73171;BME280;61381;50.118;19.962;2023-11-19T08:52:24;98364.72;;;5.83;88.47
73171;BME280;61381;50.118;19.962;2023-11-19T08:57:25;98357.94;;;5.98;88.65
73171;BME280;61381;50.118;19.962;2023-11-19T09:02:27;98349.00;;;6.14;88.24
73171;BME280;61381;50.118;19.962;2023-11-19T09:07:28;98352.44;;;6.10;87.52
73171;BME280;61381;50.118;19.962;2023-11-19T09:12:29;98344.06;;;6.43;86.04
73171;BME280;61381;50.118;19.962;2023-11-19T09:17:31;98338.13;;;6.26;85.94
73171;BME280;61381;50.118;19.962;2023-11-19T09:22:32;98338.75;;;6.49;85.15
73171;BME280;61381;50.118;19.962;2023-11-19T09:27:33;98322.59;;;6.81;83.02
73171;BME280;61381;50.118;19.962;2023-11-19T09:32:35;98304.53;;;6.88;83.76
73171;BME280;61381;50.118;19.962;2023-11-19T09:37:36;98283.19;;;6.73;82.09
73171;BME280;61381;50.118;19.962;2023-11-19T09:42:39;98280.81;;;6.71;82.56
73171;BME280;61381;50.118;19.962;2023-11-19T09:47:45;98245.91;;;6.63;83.94
73171;BME280;61381;50.118;19.962;2023-11-19T09:52:47;98264.78;;;6.40;84.83
73171;BME280;61381;50.118;19.962;2023-11-19T09:57:49;98266.19;;;7.05;85.48
73171;BME280;61381;50.118;19.962;2023-11-19T10:02:54;98260.31;;;6.82;80.88
73171;BME280;61381;50.118;19.962;2023-11-19T10:07:56;98245.66;;;6.64;83.48
73171;BME280;61381;50.118;19.962;2023-11-19T10:12:57;98233.44;;;7.09;79.96
73171;BME280;61381;50.118;19.962;2023-11-19T10:18:00;98226.16;;;7.61;78.76
73171;BME280;61381;50.118;19.962;2023-11-19T10:23:01;98220.34;;;7.18;81.09
73171;BME280;61381;50.118;19.962;2023-11-19T10:28:02;98215.31;;;7.11;82.02
73171;BME280;61381;50.118;19.962;2023-11-19T10:33:06;98211.06;;;6.90;83.24
73171;BME280;61381;50.118;19.962;2023-11-19T10:38:14;98185.50;;;6.94;83.04
73171;BME280;61381;50.118;19.962;2023-11-19T10:43:16;98177.53;;;6.84;85.04
73171;BME280;61381;50.118;19.962;2023-11-19T10:48:18;98160.63;;;7.35;82.69
73171;BME280;61381;50.118;19.962;2023-11-19T10:53:21;98148.41;;;7.28;81.04
73171;BME280;61381;50.118;19.962;2023-11-19T10:58:24;98132.22;;;7.80;78.69
73171;BME280;61381;50.118;19.962;2023-11-19T11:03:35;98134.59;;;7.06;82.82
73171;BME280;61381;50.118;19.962;2023-11-19T11:08:38;98122.09;;;7.11;81.90
73171;BME280;61381;50.118;19.962;2023-11-19T11:13:41;98100.66;;;7.42;81.90
73171;BME280;61381;50.118;19.962;2023-11-19T11:18:44;98087.25;;;7.58;80.12
73171;BME280;61381;50.118;19.962;2023-11-19T11:29:26;98067.91;;;7.42;81.17
73171;BME280;61381;50.118;19.962;2023-11-19T11:34:44;98067.06;;;7.46;77.64
73171;BME280;61381;50.118;19.962;2023-11-19T11:39:50;98054.66;;;7.26;79.54
73171;BME280;61381;50.118;19.962;2023-11-19T11:45:01;98032.97;;;7.43;81.26
73171;BME280;61381;50.118;19.962;2023-11-19T11:50:08;98038.66;;;7.26;82.65
73171;BME280;61381;50.118;19.962;2023-11-19T11:55:11;98047.72;;;7.25;84.59
73171;BME280;61381;50.118;19.962;2023-11-19T12:00:21;98031.34;;;6.82;89.25
73171;BME280;61381;50.118;19.962;2023-11-19T12:05:24;98034.88;;;6.57;91.58
73171;BME280;61381;50.118;19.962;2023-11-19T12:10:25;98021.09;;;6.14;94.58
73171;BME280;61381;50.118;19.962;2023-11-19T12:15:26;97999.81;;;6.19;98.13
73171;BME280;61381;50.118;19.962;2023-11-19T12:20:33;97991.53;;;5.69;100.00
73171;BME280;61381;50.118;19.962;2023-11-19T12:25:34;97977.69;;;5.36;100.00
73171;BME280;61381;50.118;19.962;2023-11-19T12:30:35;97967.78;;;5.06;100.00
73171;BME280;61381;50.118;19.962;2023-11-19T12:35:39;97953.22;;;5.24;100.00
73171;BME280;61381;50.118;19.962;2023-11-19T12:40:40;97948.91;;;4.97;100.00
73171;BME280;61381;50.118;19.962;2023-11-19T12:45:41;97941.47;;;4.31;100.00
73171;BME280;61381;50.118;19.962;2023-11-19T12:50:54;97932.88;;;4.66;100.00
73171;BME280;61381;50.118;19.962;2023-11-19T12:55:55;97936.44;;;4.39;100.00
73171;BME280;61381;50.118;19.962;2023-11-19T13:01:01;97918.63;;;4.93;100.00
73171;BME280;61381;50.118;19.962;2023-11-19T13:06:04;97926.09;;;5.06;100.00
73171;BME280;61381;50.118;19.962;2023-11-19T13:11:06;97911.69;;;4.76;100.00
73171;BME280;61381;50.118;19.962;2023-11-19T13:16:07;97880.19;;;4.27;100.00
73171;BME280;61381;50.118;19.962;2023-11-19T13:21:09;97894.66;;;4.57;100.00
73171;BME280;61381;50.118;19.962;2023-11-19T13:26:10;97882.81;;;4.90;100.00
73171;BME280;61381;50.118;19.962;2023-11-19T13:31:12;97882.69;;;4.49;100.00
73171;BME280;61381;50.118;19.962;2023-11-19T13:36:14;97874.28;;;4.78;100.00
73171;BME280;61381;50.118;19.962;2023-11-19T13:41:15;97862.56;;;4.63;100.00
73171;BME280;61381;50.118;19.962;2023-11-19T13:46:16;97873.47;;;4.72;100.00
73171;BME280;61381;50.118;19.962;2023-11-19T13:51:18;97870.28;;;4.70;100.00
73171;BME280;61381;50.118;19.962;2023-11-19T13:56:19;97858.59;;;4.71;100.00
73171;BME280;61381;50.118;19.962;2023-11-19T14:01:20;97857.56;;;4.77;100.00
73171;BME280;61381;50.118;19.962;2023-11-19T14:06:22;97860.47;;;4.66;100.00
73171;BME280;61381;50.118;19.962;2023-11-19T14:11:23;97852.50;;;4.71;100.00
73171;BME280;61381;50.118;19.962;2023-11-19T14:16:26;97859.91;;;4.58;100.00
73171;BME280;61381;50.118;19.962;2023-11-19T14:21:28;97856.16;;;4.54;100.00
73171;BME280;61381;50.118;19.962;2023-11-19T14:26:29;97854.94;;;4.88;100.00
73171;BME280;61381;50.118;19.962;2023-11-19T14:31:30;97839.03;;;4.98;100.00
73171;BME280;61381;50.118;19.962;2023-11-19T14:36:32;97836.88;;;4.90;100.00
73171;BME280;61381;50.118;19.962;2023-11-19T14:41:33;97829.19;;;4.98;100.00
73171;BME280;61381;50.118;19.962;2023-11-19T14:46:34;97834.22;;;4.85;100.00
73171;BME280;61381;50.118;19.962;2023-11-19T14:51:37;97845.91;;;4.89;100.00
73171;BME280;61381;50.118;19.962;2023-11-19T14:56:38;97823.91;;;4.93;100.00
73171;BME280;61381;50.118;19.962;2023-11-19T15:01:39;97829.19;;;4.83;100.00
73171;BME280;61381;50.118;19.962;2023-11-19T15:06:42;97822.56;;;4.96;100.00
73171;BME280;61381;50.118;19.962;2023-11-19T15:11:43;97818.84;;;4.81;100.00
73171;BME280;61381;50.118;19.962;2023-11-19T15:16:44;97808.47;;;4.75;100.00
73171;BME280;61381;50.118;19.962;2023-11-19T15:21:47;97813.47;;;4.56;100.00
73171;BME280;61381;50.118;19.962;2023-11-19T15:26:48;97808.69;;;4.58;100.00
73171;BME280;61381;50.118;19.962;2023-11-19T15:31:48;97792.81;;;4.68;100.00
73171;BME280;61381;50.118;19.962;2023-11-19T15:36:51;97785.66;;;4.79;100.00
73171;BME280;61381;50.118;19.962;2023-11-19T15:41:52;97790.44;;;4.72;100.00
73171;BME280;61381;50.118;19.962;2023-11-19T15:46:53;97788.78;;;4.50;100.00
73171;BME280;61381;50.118;19.962;2023-11-19T15:51:55;97783.78;;;4.59;100.00
73171;BME280;61381;50.118;19.962;2023-11-19T15:56:56;97788.84;;;4.76;100.00
73171;BME280;61381;50.118;19.962;2023-11-19T16:01:57;97780.88;;;4.91;100.00
73171;BME280;61381;50.118;19.962;2023-11-19T16:06:59;97772.59;;;4.41;100.00
73171;BME280;61381;50.118;19.962;2023-11-19T16:12:00;97775.03;;;4.58;100.00
73171;BME280;61381;50.118;19.962;2023-11-19T16:17:01;97777.16;;;4.67;100.00
73171;BME280;61381;50.118;19.962;2023-11-19T16:22:04;97774.50;;;4.82;100.00
73171;BME280;61381;50.118;19.962;2023-11-19T16:27:05;97770.81;;;4.83;100.00
73171;BME280;61381;50.118;19.962;2023-11-19T16:32:06;97771.84;;;4.82;100.00
73171;BME280;61381;50.118;19.962;2023-11-19T16:37:08;97776.63;;;5.00;100.00
73171;BME280;61381;50.118;19.962;2023-11-19T16:42:09;97763.34;;;4.70;100.00
73171;BME280;61381;50.118;19.962;2023-11-19T16:47:10;97751.97;;;4.90;100.00
73171;BME280;61381;50.118;19.962;2023-11-19T16:52:13;97761.25;;;4.97;100.00
73171;BME280;61381;50.118;19.962;2023-11-19T16:57:14;97755.69;;;4.89;100.00
73171;BME280;61381;50.118;19.962;2023-11-19T17:02:14;97762.59;;;4.95;100.00
73171;BME280;61381;50.118;19.962;2023-11-19T17:07:17;97764.16;;;4.80;100.00
73171;BME280;61381;50.118;19.962;2023-11-19T17:12:18;97750.91;;;4.70;100.00
73171;BME280;61381;50.118;19.962;2023-11-19T17:17:19;97752.22;;;4.52;100.00
73171;BME280;61381;50.118;19.962;2023-11-19T17:22:21;97759.91;;;4.59;100.00
73171;BME280;61381;50.118;19.962;2023-11-19T17:27:22;97749.81;;;4.56;100.00
73171;BME280;61381;50.118;19.962;2023-11-19T17:32:23;97756.47;;;4.58;100.00
73171;BME280;61381;50.118;19.962;2023-11-19T17:37:26;97741.34;;;4.69;100.00
73171;BME280;61381;50.118;19.962;2023-11-19T17:42:27;97744.78;;;4.59;100.00
73171;BME280;61381;50.118;19.962;2023-11-19T17:47:29;97743.97;;;4.43;100.00
73171;BME280;61381;50.118;19.962;2023-11-19T17:52:31;97746.34;;;4.45;100.00
73171;BME280;61381;50.118;19.962;2023-11-19T17:57:32;97737.63;;;4.60;100.00
73171;BME280;61381;50.118;19.962;2023-11-19T18:02:33;97734.19;;;4.70;100.00
73171;BME280;61381;50.118;19.962;2023-11-19T18:07:35;97737.13;;;4.73;100.00
73171;BME280;61381;50.118;19.962;2023-11-19T18:12:36;97748.75;;;4.46;100.00
73171;BME280;61381;50.118;19.962;2023-11-19T18:17:37;97732.56;;;4.43;100.00
73171;BME280;61381;50.118;19.962;2023-11-19T18:22:40;97730.19;;;4.52;100.00
73171;BME280;61381;50.118;19.962;2023-11-19T18:27:42;97736.03;;;4.69;100.00
73171;BME280;61381;50.118;19.962;2023-11-19T18:32:43;97731.00;;;4.62;100.00
73171;BME280;61381;50.118;19.962;2023-11-19T18:37:45;97725.97;;;4.61;100.00
73171;BME280;61381;50.118;19.962;2023-11-19T18:42:46;97718.78;;;4.56;100.00
73171;BME280;61381;50.118;19.962;2023-11-19T19:00:33;97730.84;;;3.96;100.00
73171;BME280;61381;50.118;19.962;2023-11-19T19:05:34;97717.38;;;4.07;100.00
73171;BME280;61381;50.118;19.962;2023-11-19T19:10:36;97715.00;;;4.16;100.00
73171;BME280;61381;50.118;19.962;2023-11-19T19:15:38;97706.22;;;4.05;100.00
73171;BME280;61381;50.118;19.962;2023-11-19T19:20:39;97712.59;;;4.09;100.00
73171;BME280;61381;50.118;19.962;2023-11-19T19:25:40;97716.34;;;4.14;100.00
73171;BME280;61381;50.118;19.962;2023-11-19T19:30:43;97713.13;;;4.06;100.00
73171;BME280;61381;50.118;19.962;2023-11-19T19:35:44;97716.81;;;3.95;100.00
73171;BME280;61381;50.118;19.962;2023-11-19T19:40:45;97723.91;;;3.84;100.00
73171;BME280;61381;50.118;19.962;2023-11-19T19:45:48;97718.84;;;3.78;100.00
73171;BME280;61381;50.118;19.962;2023-11-19T19:50:49;97715.69;;;3.75;100.00
73171;BME280;61381;50.118;19.962;2023-11-19T19:55:50;97714.66;;;3.87;100.00
73171;BME280;61381;50.118;19.962;2023-11-19T20:00:52;97719.47;;;4.00;100.00
73171;BME280;61381;50.118;19.962;2023-11-19T20:05:55;97716.88;;;4.10;100.00
73171;BME280;61381;50.118;19.962;2023-11-19T20:10:56;97725.91;;;4.20;100.00
73171;BME280;61381;50.118;19.962;2023-11-19T20:15:59;97717.13;;;4.14;100.00
73171;BME280;61381;50.118;19.962;2023-11-19T20:21:00;97712.88;;;4.13;100.00
73171;BME280;61381;50.118;19.962;2023-11-19T20:26:01;97729.81;;;4.07;100.00
73171;BME280;61381;50.118;19.962;2023-11-19T20:31:03;97721.56;;;3.93;100.00
73171;BME280;61381;50.118;19.962;2023-11-19T20:36:05;97721.50;;;3.78;100.00
73171;BME280;61381;50.118;19.962;2023-11-19T20:41:06;97710.31;;;3.60;100.00
73171;BME280;61381;50.118;19.962;2023-11-19T20:46:08;97709.81;;;3.68;100.00
73171;BME280;61381;50.118;19.962;2023-11-19T20:51:09;97720.25;;;3.96;100.00
73171;BME280;61381;50.118;19.962;2023-11-19T20:56:10;97719.53;;;4.36;100.00
73171;BME280;61381;50.118;19.962;2023-11-19T21:01:13;97717.72;;;4.57;100.00
73171;BME280;61381;50.118;19.962;2023-11-19T21:06:14;97723.31;;;4.87;100.00
73171;BME280;61381;50.118;19.962;2023-11-19T21:11:15;97724.09;;;5.08;100.00
73171;BME280;61381;50.118;19.962;2023-11-19T21:16:17;97736.81;;;5.21;100.00
73171;BME280;61381;50.118;19.962;2023-11-19T21:21:18;97737.06;;;5.35;100.00
73171;BME280;61381;50.118;19.962;2023-11-19T21:26:19;97747.38;;;5.57;100.00
73171;BME280;61381;50.118;19.962;2023-11-19T21:31:21;97746.31;;;5.58;100.00
73171;BME280;61381;50.118;19.962;2023-11-19T21:36:22;97742.28;;;5.71;100.00
73171;BME280;61381;50.118;19.962;2023-11-19T21:41:23;97745.16;;;5.85;100.00
73171;BME280;61381;50.118;19.962;2023-11-19T21:46:25;97736.63;;;5.98;100.00
73171;BME280;61381;50.118;19.962;2023-11-19T21:51:26;97737.91;;;6.11;100.00
73171;BME280;61381;50.118;19.962;2023-11-19T21:56:27;97749.56;;;6.15;100.00
73171;BME280;61381;50.118;19.962;2023-11-19T22:01:29;97736.78;;;6.22;100.00
73171;BME280;61381;50.118;19.962;2023-11-19T22:06:30;97739.13;;;6.29;100.00
73171;BME280;61381;50.118;19.962;2023-11-19T22:11:31;97737.09;;;6.16;100.00
73171;BME280;61381;50.118;19.962;2023-11-19T22:16:33;97730.31;;;6.34;100.00
73171;BME280;61381;50.118;19.962;2023-11-19T22:21:34;97725.00;;;6.39;100.00
73171;BME280;61381;50.118;19.962;2023-11-19T22:26:35;97719.66;;;6.39;100.00
73171;BME280;61381;50.118;19.962;2023-11-19T22:31:37;97730.88;;;6.31;100.00
73171;BME280;61381;50.118;19.962;2023-11-19T22:36:38;97719.72;;;6.29;100.00
73171;BME280;61381;50.118;19.962;2023-11-19T22:41:39;97731.88;;;6.40;100.00
73171;BME280;61381;50.118;19.962;2023-11-19T22:46:42;97733.84;;;6.24;100.00
73171;BME280;61381;50.118;19.962;2023-11-19T22:51:42;97727.56;;;6.49;100.00
73171;BME280;61381;50.118;19.962;2023-11-19T22:56:43;97727.94;;;6.37;100.00
73171;BME280;61381;50.118;19.962;2023-11-19T23:02:56;97729.34;;;6.19;100.00
73171;BME280;61381;50.118;19.962;2023-11-19T23:07:57;97734.41;;;6.21;100.00
73171;BME280;61381;50.118;19.962;2023-11-19T23:12:58;97737.13;;;5.95;100.00
73171;BME280;61381;50.118;19.962;2023-11-19T23:18:00;97730.13;;;6.20;100.00
73171;BME280;61381;50.118;19.962;2023-11-19T23:23:01;97718.47;;;6.16;100.00
73171;BME280;61381;50.118;19.962;2023-11-19T23:28:02;97718.41;;;6.26;100.00
73171;BME280;61381;50.118;19.962;2023-11-19T23:33:05;97721.91;;;6.16;100.00
73171;BME280;61381;50.118;19.962;2023-11-19T23:38:06;97719.75;;;6.23;100.00
73171;BME280;61381;50.118;19.962;2023-11-19T23:43:06;97725.38;;;6.17;100.00
73171;BME280;61381;50.118;19.962;2023-11-19T23:48:09;97734.16;;;6.12;100.00
73171;BME280;61381;50.118;19.962;2023-11-19T23:53:09;97736.28;;;6.20;100.00
73171;BME280;61381;50.118;19.962;2023-11-19T23:58:10;97738.09;;;6.25;100.00
